sensor_id;sensor_type;location;lat;lon;timestamp;P1;durP1;ratioP1;P2;durP2;ratioP2
36789;SDS011;22740;52.182;8.780;2024-02-26T00:05:13;14.95;;;13.95;;
36789;SDS011;22740;52.182;8.780;2024-02-26T00:11:15;14.80;;;13.95;;
36789;SDS011;22740;52.182;8.780;2024-02-26T00:17:17;13.50;;;12.70;;
36789;SDS011;22740;52.182;8.780;2024-02-26T00:23:18;14.00;;;13.15;;
36789;SDS011;22740;52.182;8.780;2024-02-26T00:29:20;15.13;;;14.23;;
36789;SDS011;22740;52.182;8.780;2024-02-26T00:35:23;15.90;;;15.00;;
36789;SDS011;22740;52.182;8.780;2024-02-26T00:41:24;17.55;;;16.55;;
36789;SDS011;22740;52.182;8.780;2024-02-26T00:47:26;17.73;;;16.80;;
36789;SDS011;22740;52.182;8.780;2024-02-26T00:53:28;17.95;;;16.95;;
36789;SDS011;22740;52.182;8.780;2024-02-26T00:59:30;17.38;;;16.48;;
36789;SDS011;22740;52.182;8.780;2024-02-26T01:05:32;17.30;;;16.40;;
36789;SDS011;22740;52.182;8.780;2024-02-26T01:11:34;18.60;;;17.63;;
36789;SDS011;22740;52.182;8.780;2024-02-26T01:17:36;18.35;;;17.30;;
36789;SDS011;22740;52.182;8.780;2024-02-26T01:23:38;18.48;;;17.50;;
36789;SDS011;22740;52.182;8.780;2024-02-26T01:29:40;21.10;;;19.90;;
36789;SDS011;22740;52.182;8.780;2024-02-26T01:35:42;19.67;;;18.60;;
36789;SDS011;22740;52.182;8.780;2024-02-26T01:41:44;18.95;;;17.95;;
36789;SDS011;22740;52.182;8.780;2024-02-26T01:47:46;18.73;;;17.73;;
36789;SDS011;22740;52.182;8.780;2024-02-26T01:59:53;18.73;;;17.73;;
36789;SDS011;22740;52.182;8.780;2024-02-26T02:05:55;18.80;;;17.80;;
36789;SDS011;22740;52.182;8.780;2024-02-26T02:11:57;18.30;;;17.40;;
36789;SDS011;22740;52.182;8.780;2024-02-26T02:18:00;20.35;;;19.25;;
36789;SDS011;22740;52.182;8.780;2024-02-26T02:24:02;20.83;;;19.75;;
36789;SDS011;22740;52.182;8.780;2024-02-26T02:30:04;18.15;;;17.25;;
36789;SDS011;22740;52.182;8.780;2024-02-26T02:36:08;20.03;;;19.03;;
36789;SDS011;22740;52.182;8.780;2024-02-26T02:42:11;23.25;;;22.05;;
36789;SDS011;22740;52.182;8.780;2024-02-26T02:48:13;23.95;;;22.73;;
36789;SDS011;22740;52.182;8.780;2024-02-26T02:54:15;24.35;;;22.92;;
36789;SDS011;22740;52.182;8.780;2024-02-26T03:00:17;23.42;;;22.23;;
36789;SDS011;22740;52.182;8.780;2024-02-26T03:06:19;23.27;;;21.80;;
36789;SDS011;22740;52.182;8.780;2024-02-26T03:12:22;22.42;;;21.23;;
36789;SDS011;22740;52.182;8.780;2024-02-26T03:18:24;23.90;;;22.60;;
36789;SDS011;22740;52.182;8.780;2024-02-26T03:24:26;22.17;;;21.00;;
36789;SDS011;22740;52.182;8.780;2024-02-26T03:30:28;22.65;;;21.45;;
36789;SDS011;22740;52.182;8.780;2024-02-26T03:36:30;19.13;;;18.02;;
36789;SDS011;22740;52.182;8.780;2024-02-26T03:42:32;17.30;;;16.30;;
36789;SDS011;22740;52.182;8.780;2024-02-26T03:48:34;15.85;;;14.85;;
36789;SDS011;22740;52.182;8.780;2024-02-26T03:54:36;16.77;;;15.85;;
36789;SDS011;22740;52.182;8.780;2024-02-26T04:00:38;17.10;;;16.08;;
36789;SDS011;22740;52.182;8.780;2024-02-26T04:06:40;17.70;;;16.70;;
36789;SDS011;22740;52.182;8.780;2024-02-26T04:12:46;19.45;;;18.15;;
36789;SDS011;22740;52.182;8.780;2024-02-26T04:18:48;19.50;;;18.20;;
36789;SDS011;22740;52.182;8.780;2024-02-26T04:24:50;17.33;;;16.33;;
36789;SDS011;22740;52.182;8.780;2024-02-26T04:30:52;18.60;;;17.50;;
36789;SDS011;22740;52.182;8.780;2024-02-26T04:36:55;18.17;;;17.08;;
36789;SDS011;22740;52.182;8.780;2024-02-26T04:42:57;17.48;;;16.48;;
36789;SDS011;22740;52.182;8.780;2024-02-26T04:48:59;18.67;;;17.58;;
36789;SDS011;22740;52.182;8.780;2024-02-26T04:55:01;18.55;;;17.45;;
36789;SDS011;22740;52.182;8.780;2024-02-26T05:01:03;19.15;;;18.05;;
36789;SDS011;22740;52.182;8.780;2024-02-26T05:07:05;17.95;;;16.85;;
36789;SDS011;22740;52.182;8.780;2024-02-26T05:13:07;17.98;;;16.88;;
36789;SDS011;22740;52.182;8.780;2024-02-26T05:19:09;18.05;;;16.83;;
36789;SDS011;22740;52.182;8.780;2024-02-26T05:25:11;18.52;;;17.20;;
36789;SDS011;22740;52.182;8.780;2024-02-26T05:31:13;18.33;;;17.23;;
36789;SDS011;22740;52.182;8.780;2024-02-26T05:37:15;18.20;;;17.10;;
36789;SDS011;22740;52.182;8.780;2024-02-26T05:43:17;17.83;;;16.73;;
36789;SDS011;22740;52.182;8.780;2024-02-26T05:49:19;19.48;;;18.17;;
36789;SDS011;22740;52.182;8.780;2024-02-26T05:55:21;18.70;;;17.60;;
36789;SDS011;22740;52.182;8.780;2024-02-26T06:01:23;20.42;;;18.70;;
36789;SDS011;22740;52.182;8.780;2024-02-26T06:07:25;19.70;;;18.50;;
36789;SDS011;22740;52.182;8.780;2024-02-26T06:13:27;21.20;;;19.80;;
36789;SDS011;22740;52.182;8.780;2024-02-26T06:19:29;20.95;;;19.55;;
36789;SDS011;22740;52.182;8.780;2024-02-26T06:25:31;19.75;;;18.35;;
36789;SDS011;22740;52.182;8.780;2024-02-26T06:31:33;18.80;;;17.33;;
36789;SDS011;22740;52.182;8.780;2024-02-26T06:37:35;18.98;;;17.67;;
36789;SDS011;22740;52.182;8.780;2024-02-26T06:43:37;19.95;;;18.48;;
36789;SDS011;22740;52.182;8.780;2024-02-26T06:49:39;21.08;;;19.75;;
36789;SDS011;22740;52.182;8.780;2024-02-26T06:55:41;19.75;;;18.45;;
36789;SDS011;22740;52.182;8.780;2024-02-26T07:01:44;21.08;;;19.65;;
36789;SDS011;22740;52.182;8.780;2024-02-26T07:07:45;21.27;;;19.92;;
36789;SDS011;22740;52.182;8.780;2024-02-26T07:13:47;21.55;;;20.00;;
36789;SDS011;22740;52.182;8.780;2024-02-26T07:19:50;22.50;;;20.75;;
36789;SDS011;22740;52.182;8.780;2024-02-26T07:25:52;21.58;;;20.27;;
36789;SDS011;22740;52.182;8.780;2024-02-26T07:31:54;22.50;;;20.90;;
36789;SDS011;22740;52.182;8.780;2024-02-26T07:37:56;24.23;;;22.63;;
36789;SDS011;22740;52.182;8.780;2024-02-26T07:43:58;23.10;;;21.60;;
36789;SDS011;22740;52.182;8.780;2024-02-26T07:50:00;21.55;;;20.08;;
36789;SDS011;22740;52.182;8.780;2024-02-26T07:56:02;22.92;;;21.35;;
36789;SDS011;22740;52.182;8.780;2024-02-26T08:02:04;21.00;;;19.42;;
36789;SDS011;22740;52.182;8.780;2024-02-26T08:08:07;22.60;;;20.88;;
36789;SDS011;22740;52.182;8.780;2024-02-26T08:14:09;22.33;;;20.75;;
36789;SDS011;22740;52.182;8.780;2024-02-26T08:20:10;24.40;;;22.50;;
36789;SDS011;22740;52.182;8.780;2024-02-26T08:26:13;22.00;;;20.58;;
36789;SDS011;22740;52.182;8.780;2024-02-26T08:32:14;22.33;;;21.02;;
36789;SDS011;22740;52.182;8.780;2024-02-26T08:38:16;23.77;;;22.17;;
36789;SDS011;22740;52.182;8.780;2024-02-26T08:44:18;22.98;;;21.55;;
36789;SDS011;22740;52.182;8.780;2024-02-26T08:50:20;21.85;;;20.45;;
36789;SDS011;22740;52.182;8.780;2024-02-26T08:56:22;22.98;;;21.48;;
36789;SDS011;22740;52.182;8.780;2024-02-26T09:02:23;25.90;;;24.30;;
36789;SDS011;22740;52.182;8.780;2024-02-26T09:08:25;25.70;;;24.20;;
36789;SDS011;22740;52.182;8.780;2024-02-26T09:14:27;25.27;;;23.73;;
36789;SDS011;22740;52.182;8.780;2024-02-26T09:20:29;24.58;;;23.05;;
36789;SDS011;22740;52.182;8.780;2024-02-26T09:26:31;29.33;;;27.52;;
36789;SDS011;22740;52.182;8.780;2024-02-26T09:32:32;27.33;;;25.73;;
36789;SDS011;22740;52.182;8.780;2024-02-26T09:38:34;28.92;;;27.25;;
36789;SDS011;22740;52.182;8.780;2024-02-26T09:44:56;30.48;;;28.58;;
36789;SDS011;22740;52.182;8.780;2024-02-26T09:51:02;31.13;;;29.33;;
36789;SDS011;22740;52.182;8.780;2024-02-26T09:57:05;32.45;;;30.45;;
36789;SDS011;22740;52.182;8.780;2024-02-26T10:03:16;31.00;;;29.25;;
36789;SDS011;22740;52.182;8.780;2024-02-26T10:09:22;30.58;;;28.85;;
36789;SDS011;22740;52.182;8.780;2024-02-26T10:15:24;32.03;;;29.92;;
36789;SDS011;22740;52.182;8.780;2024-02-26T10:21:26;29.85;;;27.98;;
36789;SDS011;22740;52.182;8.780;2024-02-26T10:27:28;29.20;;;27.60;;
36789;SDS011;22740;52.182;8.780;2024-02-26T10:33:32;25.70;;;24.00;;
36789;SDS011;22740;52.182;8.780;2024-02-26T10:39:46;26.13;;;24.63;;
36789;SDS011;22740;52.182;8.780;2024-02-26T10:45:48;26.80;;;25.25;;
36789;SDS011;22740;52.182;8.780;2024-02-26T10:51:53;25.48;;;23.75;;
36789;SDS011;22740;52.182;8.780;2024-02-26T10:57:58;25.23;;;23.83;;
36789;SDS011;22740;52.182;8.780;2024-02-26T11:04:00;25.48;;;23.98;;
36789;SDS011;22740;52.182;8.780;2024-02-26T11:10:03;29.55;;;27.92;;
36789;SDS011;22740;52.182;8.780;2024-02-26T11:16:06;27.27;;;25.80;;
36789;SDS011;22740;52.182;8.780;2024-02-26T11:22:09;30.20;;;28.50;;
36789;SDS011;22740;52.182;8.780;2024-02-26T11:28:21;30.85;;;29.15;;
36789;SDS011;22740;52.182;8.780;2024-02-26T11:34:25;28.88;;;27.27;;
36789;SDS011;22740;52.182;8.780;2024-02-26T11:40:29;28.15;;;26.45;;
36789;SDS011;22740;52.182;8.780;2024-02-26T11:52:39;25.90;;;24.45;;
36789;SDS011;22740;52.182;8.780;2024-02-26T11:58:41;26.85;;;25.35;;
36789;SDS011;22740;52.182;8.780;2024-02-26T12:04:43;25.20;;;23.50;;
36789;SDS011;22740;52.182;8.780;2024-02-26T12:10:45;27.65;;;26.15;;
36789;SDS011;22740;52.182;8.780;2024-02-26T12:16:50;26.33;;;24.88;;
36789;SDS011;22740;52.182;8.780;2024-02-26T12:22:53;24.80;;;23.48;;
36789;SDS011;22740;52.182;8.780;2024-02-26T12:28:57;27.75;;;26.27;;
36789;SDS011;22740;52.182;8.780;2024-02-26T12:35:00;24.10;;;22.77;;
36789;SDS011;22740;52.182;8.780;2024-02-26T12:41:02;23.60;;;22.30;;
36789;SDS011;22740;52.182;8.780;2024-02-26T12:47:05;25.95;;;24.48;;
36789;SDS011;22740;52.182;8.780;2024-02-26T12:53:06;22.92;;;21.63;;
36789;SDS011;22740;52.182;8.780;2024-02-26T12:59:08;26.35;;;24.75;;
36789;SDS011;22740;52.182;8.780;2024-02-26T13:05:11;25.60;;;24.20;;
36789;SDS011;22740;52.182;8.780;2024-02-26T13:11:15;26.55;;;25.13;;
36789;SDS011;22740;52.182;8.780;2024-02-26T13:17:21;23.55;;;22.35;;
36789;SDS011;22740;52.182;8.780;2024-02-26T13:23:26;23.73;;;22.42;;
36789;SDS011;22740;52.182;8.780;2024-02-26T13:29:28;24.25;;;22.85;;
36789;SDS011;22740;52.182;8.780;2024-02-26T13:35:30;24.60;;;23.27;;
36789;SDS011;22740;52.182;8.780;2024-02-26T13:41:34;25.25;;;23.85;;
36789;SDS011;22740;52.182;8.780;2024-02-26T13:47:36;25.58;;;24.17;;
36789;SDS011;22740;52.182;8.780;2024-02-26T13:53:38;26.73;;;25.23;;
36789;SDS011;22740;52.182;8.780;2024-02-26T13:59:40;22.98;;;21.67;;
36789;SDS011;22740;52.182;8.780;2024-02-26T14:05:44;24.98;;;23.38;;
36789;SDS011;22740;52.182;8.780;2024-02-26T14:11:48;26.10;;;24.70;;
36789;SDS011;22740;52.182;8.780;2024-02-26T14:17:51;22.52;;;21.23;;
36789;SDS011;22740;52.182;8.780;2024-02-26T14:23:58;20.77;;;19.48;;
36789;SDS011;22740;52.182;8.780;2024-02-26T14:30:00;20.15;;;18.95;;
36789;SDS011;22740;52.182;8.780;2024-02-26T14:36:02;21.80;;;20.60;;
36789;SDS011;22740;52.182;8.780;2024-02-26T14:42:04;20.27;;;19.15;;
36789;SDS011;22740;52.182;8.780;2024-02-26T14:48:06;21.75;;;20.55;;
36789;SDS011;22740;52.182;8.780;2024-02-26T14:54:13;20.85;;;19.65;;
36789;SDS011;22740;52.182;8.780;2024-02-26T15:00:15;18.25;;;17.15;;
36789;SDS011;22740;52.182;8.780;2024-02-26T15:06:17;17.38;;;16.38;;
36789;SDS011;22740;52.182;8.780;2024-02-26T15:12:20;21.33;;;19.92;;
36789;SDS011;22740;52.182;8.780;2024-02-26T15:18:27;18.65;;;17.55;;
36789;SDS011;22740;52.182;8.780;2024-02-26T15:24:29;21.80;;;20.23;;
36789;SDS011;22740;52.182;8.780;2024-02-26T15:30:31;21.17;;;19.92;;
36789;SDS011;22740;52.182;8.780;2024-02-26T15:36:34;18.67;;;17.17;;
36789;SDS011;22740;52.182;8.780;2024-02-26T15:42:36;16.80;;;15.80;;
36789;SDS011;22740;52.182;8.780;2024-02-26T15:48:39;16.58;;;15.68;;
36789;SDS011;22740;52.182;8.780;2024-02-26T15:54:41;15.13;;;14.20;;
36789;SDS011;22740;52.182;8.780;2024-02-26T16:00:43;12.70;;;11.95;;
36789;SDS011;22740;52.182;8.780;2024-02-26T16:06:47;10.63;;;9.82;;
36789;SDS011;22740;52.182;8.780;2024-02-26T16:12:57;12.43;;;11.63;;
36789;SDS011;22740;52.182;8.780;2024-02-26T16:19:05;9.70;;;9.10;;
36789;SDS011;22740;52.182;8.780;2024-02-26T16:25:10;12.25;;;11.55;;
36789;SDS011;22740;52.182;8.780;2024-02-26T16:31:12;11.90;;;11.20;;
36789;SDS011;22740;52.182;8.780;2024-02-26T16:37:14;12.02;;;11.32;;
36789;SDS011;22740;52.182;8.780;2024-02-26T16:49:20;12.73;;;12.02;;
36789;SDS011;22740;52.182;8.780;2024-02-26T16:55:22;14.30;;;13.50;;
36789;SDS011;22740;52.182;8.780;2024-02-26T17:01:25;12.65;;;11.95;;
36789;SDS011;22740;52.182;8.780;2024-02-26T17:07:27;12.85;;;12.05;;
36789;SDS011;22740;52.182;8.780;2024-02-26T17:13:29;13.32;;;12.52;;
36789;SDS011;22740;52.182;8.780;2024-02-26T17:19:31;12.93;;;12.23;;
36789;SDS011;22740;52.182;8.780;2024-02-26T17:25:33;11.57;;;10.85;;
36789;SDS011;22740;52.182;8.780;2024-02-26T17:31:35;13.90;;;13.00;;
36789;SDS011;22740;52.182;8.780;2024-02-26T17:37:43;14.30;;;13.50;;
36789;SDS011;22740;52.182;8.780;2024-02-26T17:43:45;14.23;;;13.43;;
36789;SDS011;22740;52.182;8.780;2024-02-26T17:49:47;14.07;;;13.18;;
36789;SDS011;22740;52.182;8.780;2024-02-26T17:55:49;15.15;;;14.35;;
36789;SDS011;22740;52.182;8.780;2024-02-26T18:01:51;14.68;;;13.88;;
36789;SDS011;22740;52.182;8.780;2024-02-26T18:07:53;16.52;;;15.43;;
36789;SDS011;22740;52.182;8.780;2024-02-26T18:13:55;13.10;;;12.30;;
36789;SDS011;22740;52.182;8.780;2024-02-26T18:19:58;14.80;;;14.00;;
36789;SDS011;22740;52.182;8.780;2024-02-26T18:26:00;14.10;;;13.30;;
36789;SDS011;22740;52.182;8.780;2024-02-26T18:32:03;15.07;;;14.27;;
36789;SDS011;22740;52.182;8.780;2024-02-26T18:38:05;16.42;;;15.52;;
36789;SDS011;22740;52.182;8.780;2024-02-26T18:44:06;13.95;;;13.15;;
36789;SDS011;22740;52.182;8.780;2024-02-26T18:50:09;14.45;;;13.65;;
36789;SDS011;22740;52.182;8.780;2024-02-26T18:56:11;14.05;;;13.30;;
36789;SDS011;22740;52.182;8.780;2024-02-26T19:02:15;14.87;;;14.07;;
36789;SDS011;22740;52.182;8.780;2024-02-26T19:08:17;13.85;;;13.02;;
36789;SDS011;22740;52.182;8.780;2024-02-26T19:14:18;13.35;;;12.55;;
36789;SDS011;22740;52.182;8.780;2024-02-26T19:20:20;14.13;;;13.32;;
36789;SDS011;22740;52.182;8.780;2024-02-26T19:26:22;15.77;;;14.77;;
36789;SDS011;22740;52.182;8.780;2024-02-26T19:32:24;14.55;;;13.55;;
36789;SDS011;22740;52.182;8.780;2024-02-26T19:38:26;14.75;;;13.85;;
36789;SDS011;22740;52.182;8.780;2024-02-26T19:44:28;13.98;;;13.18;;
36789;SDS011;22740;52.182;8.780;2024-02-26T19:50:30;15.43;;;14.48;;
36789;SDS011;22740;52.182;8.780;2024-02-26T19:56:32;14.18;;;13.27;;
36789;SDS011;22740;52.182;8.780;2024-02-26T20:02:35;15.63;;;14.63;;
36789;SDS011;22740;52.182;8.780;2024-02-26T20:08:38;14.82;;;13.88;;
36789;SDS011;22740;52.182;8.780;2024-02-26T20:14:41;13.60;;;12.70;;
36789;SDS011;22740;52.182;8.780;2024-02-26T20:20:44;15.02;;;13.98;;
36789;SDS011;22740;52.182;8.780;2024-02-26T20:26:46;15.55;;;14.45;;
36789;SDS011;22740;52.182;8.780;2024-02-26T20:38:53;14.88;;;13.73;;
36789;SDS011;22740;52.182;8.780;2024-02-26T20:44:55;14.95;;;13.88;;
36789;SDS011;22740;52.182;8.780;2024-02-26T20:50:57;17.15;;;15.85;;
36789;SDS011;22740;52.182;8.780;2024-02-26T20:56:58;17.13;;;15.63;;
36789;SDS011;22740;52.182;8.780;2024-02-26T21:03:00;17.42;;;15.73;;
36789;SDS011;22740;52.182;8.780;2024-02-26T21:09:09;17.65;;;16.08;;
36789;SDS011;22740;52.182;8.780;2024-02-26T21:15:11;17.83;;;16.25;;
36789;SDS011;22740;52.182;8.780;2024-02-26T21:21:14;19.02;;;17.33;;
36789;SDS011;22740;52.182;8.780;2024-02-26T21:27:16;19.20;;;17.50;;
36789;SDS011;22740;52.182;8.780;2024-02-26T21:33:18;19.42;;;17.73;;
36789;SDS011;22740;52.182;8.780;2024-02-26T21:39:20;19.15;;;17.55;;
36789;SDS011;22740;52.182;8.780;2024-02-26T21:45:22;19.77;;;18.05;;
36789;SDS011;22740;52.182;8.780;2024-02-26T21:51:23;20.25;;;18.48;;
36789;SDS011;22740;52.182;8.780;2024-02-26T21:57:25;20.48;;;18.58;;
36789;SDS011;22740;52.182;8.780;2024-02-26T22:03:27;20.05;;;17.83;;
36789;SDS011;22740;52.182;8.780;2024-02-26T22:09:29;20.88;;;19.05;;
36789;SDS011;22740;52.182;8.780;2024-02-26T22:15:31;21.48;;;19.40;;
36789;SDS011;22740;52.182;8.780;2024-02-26T22:21:36;21.45;;;19.55;;
36789;SDS011;22740;52.182;8.780;2024-02-26T22:27:38;22.92;;;20.83;;
36789;SDS011;22740;52.182;8.780;2024-02-26T22:33:40;24.08;;;21.58;;
36789;SDS011;22740;52.182;8.780;2024-02-26T22:39:42;21.88;;;19.92;;
36789;SDS011;22740;52.182;8.780;2024-02-26T22:45:45;24.05;;;21.85;;
36789;SDS011;22740;52.182;8.780;2024-02-26T22:51:48;24.33;;;21.90;;
36789;SDS011;22740;52.182;8.780;2024-02-26T22:57:51;23.97;;;21.97;;
36789;SDS011;22740;52.182;8.780;2024-02-26T23:03:57;23.15;;;20.77;;
36789;SDS011;22740;52.182;8.780;2024-02-26T23:09:59;25.35;;;22.95;;
36789;SDS011;22740;52.182;8.780;2024-02-26T23:16:01;24.85;;;22.58;;
36789;SDS011;22740;52.182;8.780;2024-02-26T23:22:04;24.67;;;22.25;;
36789;SDS011;22740;52.182;8.780;2024-02-26T23:28:06;24.23;;;21.83;;
36789;SDS011;22740;52.182;8.780;2024-02-26T23:34:09;24.83;;;20.83;;
36789;SDS011;22740;52.182;8.780;2024-02-26T23:40:11;23.95;;;21.40;;
36789;SDS011;22740;52.182;8.780;2024-02-26T23:46:14;25.42;;;23.00;;
36789;SDS011;22740;52.182;8.780;2024-02-26T23:52:16;26.45;;;23.88;;
36789;SDS011;22740;52.182;8.780;2024-02-26T23:58:20;26.00;;;23.52;;
